createdAt,value
2019-03-15T00:00:16.696Z,7.99
2019-03-15T00:01:16.696Z,7.97
2019-03-15T00:02:16.647Z,7.90
2019-03-15T00:03:16.618Z,7.90
2019-03-15T00:04:16.600Z,8.02
2019-03-15T00:05:16.572Z,8.00
2019-03-15T00:06:16.545Z,7.93
2019-03-15T00:07:16.529Z,7.90
2019-03-15T00:08:16.522Z,7.96
2019-03-15T00:09:16.482Z,8.02
2019-03-15T00:10:16.460Z,8.14
2019-03-15T00:11:16.437Z,8.11
2019-03-15T00:12:16.405Z,8.03
2019-03-15T00:13:16.386Z,7.97
2019-03-15T00:14:16.367Z,8.02
2019-03-15T00:15:16.342Z,7.92
2019-03-15T00:16:16.319Z,7.89
2019-03-15T00:17:16.294Z,7.93
2019-03-15T00:18:16.294Z,8.04
2019-03-15T00:19:16.249Z,8.02
2019-03-15T00:20:16.220Z,7.99
2019-03-15T00:21:16.202Z,7.99
2019-03-15T00:22:16.179Z,8.03
2019-03-15T00:23:16.156Z,8.12
2019-03-15T00:24:16.124Z,8.12
2019-03-15T00:25:16.108Z,8.04
2019-03-15T00:26:16.095Z,8.10
2019-03-15T00:27:16.055Z,8.08
2019-03-15T00:28:16.048Z,8.12
2019-03-15T00:29:16.175Z,8.14
2019-03-15T00:30:15.990Z,8.04
2019-03-15T00:31:15.958Z,8.12
2019-03-15T00:32:15.947Z,8.20
2019-03-15T00:33:15.922Z,8.29
2019-03-15T00:34:16.649Z,8.25
2019-03-15T00:35:15.870Z,8.30
2019-03-15T00:36:15.844Z,8.29
2019-03-15T00:37:15.822Z,8.29
2019-03-15T00:38:15.807Z,8.25
2019-03-15T00:39:15.884Z,8.12
2019-03-15T00:40:16.755Z,8.20
2019-03-15T00:41:15.755Z,8.26
2019-03-15T00:42:15.709Z,8.14
2019-03-15T00:43:15.681Z,8.29
2019-03-15T00:44:15.672Z,8.14
2019-03-15T00:45:15.633Z,8.14
2019-03-15T00:46:15.612Z,8.02
2019-03-15T00:47:15.596Z,8.02
2019-03-15T00:48:15.566Z,7.99
2019-03-15T00:49:15.543Z,7.99
2019-03-15T00:50:15.524Z,8.04
2019-03-15T00:51:15.495Z,7.92
2019-03-15T00:52:15.473Z,7.87
2019-03-15T00:53:15.448Z,7.90
2019-03-15T00:54:15.430Z,7.87
2019-03-15T00:55:15.405Z,7.75
2019-03-15T00:56:15.376Z,7.72
2019-03-15T00:57:15.360Z,7.82
2019-03-15T00:58:15.331Z,7.77
2019-03-15T00:59:15.319Z,7.75
2019-03-15T01:00:15.285Z,7.72
2019-03-15T01:01:15.259Z,7.82
2019-03-15T01:02:15.245Z,7.82
2019-03-15T01:03:15.214Z,7.78
2019-03-15T01:04:15.195Z,7.72
2019-03-15T01:05:15.166Z,7.55
2019-03-15T01:06:15.144Z,7.58
2019-03-15T01:07:15.118Z,7.63
2019-03-15T01:08:15.095Z,7.71
2019-03-15T01:09:15.078Z,7.85
2019-03-15T01:10:15.047Z,7.84
2019-03-15T01:11:15.025Z,7.78
2019-03-15T01:12:15.002Z,7.72
2019-03-15T01:13:14.983Z,7.81
2019-03-15T01:14:14.954Z,7.79
2019-03-15T01:15:14.932Z,7.71
2019-03-15T01:16:14.922Z,7.67
2019-03-15T01:17:14.882Z,7.55
2019-03-15T01:18:14.869Z,7.50
2019-03-15T01:19:14.838Z,7.44
2019-03-15T01:20:14.812Z,7.45
2019-03-15T01:21:14.786Z,7.45
2019-03-15T01:22:14.764Z,7.34
2019-03-15T01:23:14.742Z,7.29
2019-03-15T01:24:14.729Z,7.24
2019-03-15T01:25:14.703Z,7.26
2019-03-15T01:26:14.675Z,7.26
2019-03-15T01:27:14.652Z,7.31
2019-03-15T01:28:14.632Z,7.24
2019-03-15T01:29:14.608Z,7.24
2019-03-15T01:30:14.575Z,7.27
2019-03-15T01:31:14.572Z,7.34
2019-03-15T01:32:14.528Z,7.23
2019-03-15T01:33:14.527Z,7.26
2019-03-15T01:34:14.478Z,7.27
2019-03-15T01:35:14.460Z,7.32
2019-03-15T01:36:14.519Z,7.27
2019-03-15T01:37:14.415Z,7.23
2019-03-15T01:38:14.387Z,7.34
2019-03-15T01:39:14.364Z,7.24
2019-03-15T01:40:14.338Z,7.24
2019-03-15T01:41:14.316Z,7.29
2019-03-15T01:42:14.290Z,7.35
2019-03-15T01:43:14.267Z,7.26
2019-03-15T01:44:14.244Z,7.20
2019-03-15T01:45:14.219Z,7.19
2019-03-15T01:46:14.197Z,7.27
2019-03-15T01:47:14.171Z,7.35
2019-03-15T01:48:14.155Z,7.23
2019-03-15T01:49:14.151Z,7.26
2019-03-15T01:50:14.101Z,7.27
2019-03-15T01:51:14.083Z,7.40
2019-03-15T01:52:14.054Z,7.31
2019-03-15T01:53:14.029Z,7.35
2019-03-15T01:54:14.006Z,7.31
2019-03-15T01:55:13.990Z,7.29
2019-03-15T01:56:13.968Z,7.37
2019-03-15T01:57:13.942Z,7.32
2019-03-15T01:58:13.921Z,7.42
2019-03-15T01:59:13.900Z,7.45
2019-03-15T02:00:13.873Z,7.44
2019-03-15T02:01:13.847Z,7.42
2019-03-15T02:02:13.824Z,7.40
2019-03-15T02:03:13.905Z,7.40
2019-03-15T02:04:13.776Z,7.38
2019-03-15T02:05:13.754Z,7.37
2019-03-15T02:06:13.728Z,7.40
2019-03-15T02:07:13.700Z,7.41
2019-03-15T02:08:13.717Z,7.44
2019-03-15T02:09:13.657Z,7.40
2019-03-15T02:10:13.642Z,7.41
2019-03-15T02:11:13.617Z,7.44
2019-03-15T02:12:13.588Z,7.49
2019-03-15T02:13:13.572Z,7.53
2019-03-15T02:14:13.533Z,7.53
2019-03-15T02:15:13.514Z,7.52
2019-03-15T02:16:13.495Z,7.55
2019-03-15T02:17:13.476Z,7.60
2019-03-15T02:18:13.441Z,7.59
2019-03-15T02:19:13.419Z,7.62
2019-03-15T02:20:13.396Z,7.58
2019-03-15T02:21:13.370Z,7.55
2019-03-15T02:22:13.351Z,7.67
2019-03-15T02:23:13.323Z,7.75
2019-03-15T02:24:13.568Z,7.67
2019-03-15T02:25:13.291Z,7.74
2019-03-15T02:26:13.253Z,7.84
2019-03-15T02:27:13.237Z,7.85
2019-03-15T02:28:13.218Z,7.74
2019-03-15T02:29:13.189Z,7.71
2019-03-15T02:30:13.161Z,7.69
2019-03-15T02:31:13.139Z,7.72
2019-03-15T02:32:13.171Z,7.75
2019-03-15T02:33:13.116Z,7.69
2019-03-15T02:34:13.075Z,7.69
2019-03-15T02:35:13.069Z,7.69
2019-03-15T02:36:13.907Z,7.82
2019-03-15T02:37:13.004Z,7.78
2019-03-15T02:38:12.990Z,7.75
2019-03-15T02:39:12.952Z,7.82
2019-03-15T02:40:13.182Z,7.79
2019-03-15T02:41:12.903Z,7.79
2019-03-15T02:42:12.879Z,7.77
2019-03-15T02:43:12.863Z,7.78
2019-03-15T02:44:12.915Z,7.82
2019-03-15T02:45:12.816Z,7.72
2019-03-15T02:46:12.787Z,7.75
2019-03-15T02:47:12.772Z,7.79
2019-03-15T02:48:13.556Z,7.71
2019-03-15T02:49:12.729Z,7.63
2019-03-15T02:50:12.700Z,7.71
2019-03-15T02:51:12.672Z,7.82
2019-03-15T02:52:12.645Z,7.79
2019-03-15T02:53:12.628Z,7.82
2019-03-15T02:54:12.606Z,7.81
2019-03-15T02:55:12.582Z,7.81
2019-03-15T02:56:12.593Z,7.77
2019-03-15T02:57:12.532Z,7.72
2019-03-15T02:58:12.510Z,7.79
2019-03-15T02:59:12.492Z,7.71
2019-03-15T03:00:13.651Z,7.74
2019-03-15T03:01:12.441Z,7.75
2019-03-15T03:02:12.419Z,7.67
2019-03-15T03:03:12.394Z,7.75
2019-03-15T03:04:13.383Z,7.78
2019-03-15T03:05:12.350Z,7.78
2019-03-15T03:06:12.324Z,7.67
2019-03-15T03:07:12.295Z,7.69
2019-03-15T03:08:12.279Z,7.67
2019-03-15T03:09:12.272Z,7.71
2019-03-15T03:10:12.232Z,7.66
2019-03-15T03:11:12.220Z,7.67
2019-03-15T03:12:12.191Z,7.56
2019-03-15T03:13:12.154Z,7.59
2019-03-15T03:14:12.159Z,7.59
2019-03-15T03:15:12.110Z,7.59
2019-03-15T03:16:12.093Z,7.52
2019-03-15T03:17:13.006Z,7.60
2019-03-15T03:18:12.044Z,7.62
2019-03-15T03:19:12.020Z,7.55
2019-03-15T03:20:12.244Z,7.62
2019-03-15T03:21:11.976Z,7.66
2019-03-15T03:22:11.946Z,7.63
2019-03-15T03:23:11.921Z,7.66
2019-03-15T03:24:11.897Z,7.60
2019-03-15T03:25:12.129Z,7.71
2019-03-15T03:26:13.462Z,7.71
2019-03-15T03:27:11.833Z,7.74
2019-03-15T03:28:11.810Z,7.72
2019-03-15T03:29:11.784Z,7.74
2019-03-15T03:30:12.023Z,7.69
2019-03-15T03:31:11.760Z,7.77
2019-03-15T03:32:13.533Z,7.63
2019-03-15T03:33:12.646Z,7.84
2019-03-15T03:34:12.558Z,7.71
2019-03-15T03:35:12.204Z,7.75
2019-03-15T03:36:11.643Z,7.67
2019-03-15T03:37:11.594Z,7.75
2019-03-15T03:38:12.293Z,7.74
2019-03-15T03:39:11.547Z,7.75
2019-03-15T03:40:11.521Z,7.78
2019-03-15T03:41:11.499Z,7.82
2019-03-15T03:42:11.564Z,7.75
2019-03-15T03:43:11.451Z,7.78
2019-03-15T03:44:11.449Z,7.78
2019-03-15T03:45:11.412Z,7.85
2019-03-15T03:46:11.380Z,7.74
2019-03-15T03:47:11.364Z,7.84
2019-03-15T03:48:11.337Z,7.78
2019-03-15T03:49:11.312Z,7.82
2019-03-15T03:50:11.287Z,7.87
2019-03-15T03:51:11.271Z,7.81
2019-03-15T03:52:11.265Z,7.81
2019-03-15T03:53:11.230Z,7.81
2019-03-15T03:54:11.199Z,7.84
2019-03-15T03:55:11.186Z,7.69
2019-03-15T03:56:11.147Z,7.84
2019-03-15T03:57:11.127Z,7.69
2019-03-15T03:58:11.102Z,7.75
2019-03-15T03:59:11.077Z,7.79
2019-03-15T04:00:11.062Z,7.82
2019-03-15T04:01:11.033Z,7.78
2019-03-15T04:02:11.013Z,7.75
2019-03-15T04:03:10.994Z,7.77
2019-03-15T04:04:10.965Z,7.79
2019-03-15T04:05:10.943Z,7.82
2019-03-15T04:06:10.921Z,7.81
2019-03-15T04:07:10.895Z,7.84
2019-03-15T04:08:10.873Z,7.87
2019-03-15T04:09:10.850Z,7.81
2019-03-15T04:10:10.832Z,7.82
2019-03-15T04:11:10.796Z,7.92
2019-03-15T04:12:10.774Z,7.94
2019-03-15T04:13:10.757Z,7.92
2019-03-15T04:14:10.733Z,7.99
2019-03-15T04:15:10.713Z,7.96
2019-03-15T04:16:10.692Z,7.94
2019-03-15T04:17:10.657Z,8.04
2019-03-15T04:18:10.641Z,7.99
2019-03-15T04:19:10.615Z,7.89
2019-03-15T04:20:10.587Z,7.99
2019-03-15T04:21:10.565Z,7.90
2019-03-15T04:22:10.545Z,7.94
2019-03-15T04:23:10.579Z,7.94
2019-03-15T04:24:10.502Z,7.99
2019-03-15T04:25:10.476Z,8.03
2019-03-15T04:26:10.447Z,8.07
2019-03-15T04:27:10.431Z,7.97
2019-03-15T04:28:10.402Z,8.04
2019-03-15T04:29:10.388Z,8.12
2019-03-15T04:30:10.357Z,8.07
2019-03-15T04:31:10.334Z,8.11
2019-03-15T04:32:10.317Z,8.12
2019-03-15T04:33:10.284Z,8.10
2019-03-15T04:34:10.265Z,8.12
2019-03-15T04:35:10.250Z,8.17
2019-03-15T04:36:10.226Z,8.14
2019-03-15T04:37:10.197Z,8.22
2019-03-15T04:38:10.197Z,8.08
2019-03-15T04:39:12.588Z,8.10
2019-03-15T04:40:10.123Z,8.11
2019-03-15T04:41:10.101Z,8.11
2019-03-15T04:42:10.084Z,8.12
2019-03-15T04:43:10.058Z,8.17
2019-03-15T04:44:10.029Z,8.15
2019-03-15T04:45:10.007Z,8.15
2019-03-15T04:46:09.988Z,8.14
2019-03-15T04:47:09.962Z,8.11
2019-03-15T04:48:09.943Z,8.07
2019-03-15T04:49:09.915Z,8.14
2019-03-15T04:50:09.898Z,8.14
2019-03-15T04:51:09.869Z,8.03
2019-03-15T04:52:09.847Z,8.02
2019-03-15T04:53:09.839Z,8.08
2019-03-15T04:54:09.802Z,8.11
2019-03-15T04:55:09.784Z,8.15
2019-03-15T04:56:09.757Z,8.14
2019-03-15T04:57:09.732Z,8.18
2019-03-15T04:58:09.713Z,8.14
2019-03-15T04:59:09.683Z,8.18
2019-03-15T05:00:09.669Z,8.15
2019-03-15T05:01:09.638Z,8.14
2019-03-15T05:02:09.623Z,8.15
2019-03-15T05:03:09.616Z,8.14
2019-03-15T05:04:09.568Z,8.18
2019-03-15T05:05:09.545Z,8.22
2019-03-15T05:06:09.521Z,8.26
2019-03-15T05:07:09.511Z,8.12
2019-03-15T05:08:09.479Z,8.15
2019-03-15T05:09:09.462Z,8.14
2019-03-15T05:10:09.470Z,8.20
2019-03-15T05:11:09.410Z,8.18
2019-03-15T05:12:09.382Z,8.25
2019-03-15T05:13:09.363Z,8.22
2019-03-15T05:14:09.337Z,8.11
2019-03-15T05:15:09.318Z,8.28
2019-03-15T05:16:09.306Z,8.12
2019-03-15T05:17:09.265Z,8.25
2019-03-15T05:18:09.260Z,8.25
2019-03-15T05:19:09.279Z,8.29
2019-03-15T05:20:09.242Z,8.29
2019-03-15T05:21:09.181Z,8.26
2019-03-15T05:22:09.157Z,8.30
2019-03-15T05:23:09.134Z,8.40
2019-03-15T05:24:09.105Z,8.47
2019-03-15T05:25:09.083Z,8.42
2019-03-15T05:26:09.064Z,8.45
2019-03-15T05:27:09.039Z,8.37
2019-03-15T05:28:09.019Z,8.36
2019-03-15T05:29:08.987Z,8.33
2019-03-15T05:30:08.974Z,8.37
2019-03-15T05:31:08.947Z,8.28
2019-03-15T05:32:08.931Z,8.33
2019-03-15T05:33:08.900Z,8.37
2019-03-15T05:34:08.877Z,8.44
2019-03-15T05:35:08.861Z,8.48
2019-03-15T05:36:08.827Z,8.47
2019-03-15T05:37:08.824Z,8.53
2019-03-15T05:38:08.783Z,8.42
2019-03-15T05:39:08.767Z,8.47
2019-03-15T05:40:08.742Z,8.48
2019-03-15T05:41:08.721Z,8.44
2019-03-15T05:42:08.700Z,8.44
2019-03-15T05:43:08.675Z,8.62
2019-03-15T05:44:08.650Z,8.45
2019-03-15T05:45:08.623Z,8.55
2019-03-15T05:46:08.599Z,8.48
2019-03-15T05:47:08.582Z,8.51
2019-03-15T05:48:08.553Z,8.53
2019-03-15T05:49:08.536Z,8.53
2019-03-15T05:50:08.566Z,8.45
2019-03-15T05:51:08.506Z,8.62
2019-03-15T05:52:08.467Z,8.51
2019-03-15T05:53:08.445Z,8.57
2019-03-15T05:54:08.419Z,8.58
2019-03-15T05:55:08.397Z,8.63
2019-03-15T05:56:08.375Z,8.62
2019-03-15T05:57:08.349Z,8.54
2019-03-15T05:58:08.328Z,8.42
2019-03-15T05:59:08.298Z,8.44
2019-03-15T06:00:08.281Z,8.39
2019-03-15T06:01:08.264Z,8.35
2019-03-15T06:02:08.231Z,8.36
2019-03-15T06:03:08.210Z,8.32
2019-03-15T06:04:08.195Z,8.29
2019-03-15T06:05:08.986Z,8.22
2019-03-15T06:06:08.143Z,8.28
2019-03-15T06:07:08.118Z,8.21
2019-03-15T06:08:08.090Z,8.28
2019-03-15T06:09:08.077Z,8.10
2019-03-15T06:10:08.059Z,8.15
2019-03-15T06:11:08.040Z,8.12
2019-03-15T06:12:08.003Z,8.20
2019-03-15T06:13:07.981Z,8.14
2019-03-15T06:14:07.958Z,8.12
2019-03-15T06:15:07.930Z,8.18
2019-03-15T06:16:07.915Z,8.07
2019-03-15T06:17:07.893Z,8.11
2019-03-15T06:18:07.862Z,8.10
2019-03-15T06:19:07.836Z,8.11
2019-03-15T06:20:07.817Z,8.03
2019-03-15T06:21:07.795Z,8.03
2019-03-15T06:22:07.772Z,8.08
2019-03-15T06:23:07.748Z,8.02
2019-03-15T06:24:07.724Z,8.04
2019-03-15T06:25:07.698Z,8.04
2019-03-15T06:26:07.691Z,7.97
2019-03-15T06:27:07.649Z,7.97
2019-03-15T06:28:07.635Z,8.00
2019-03-15T06:29:07.611Z,8.00
2019-03-15T06:30:07.584Z,8.04
2019-03-15T06:31:07.560Z,7.93
2019-03-15T06:32:07.534Z,7.92
2019-03-15T06:33:07.518Z,7.92
2019-03-15T06:34:07.489Z,7.94
2019-03-15T06:35:07.461Z,7.90
2019-03-15T06:36:07.449Z,7.92
2019-03-15T06:37:07.419Z,8.00
2019-03-15T06:38:07.398Z,7.96
2019-03-15T06:39:08.416Z,7.90
2019-03-15T06:40:07.349Z,7.96
2019-03-15T06:41:07.358Z,7.92
2019-03-15T06:42:07.304Z,7.85
2019-03-15T06:43:07.284Z,7.94
2019-03-15T06:44:07.354Z,7.87
2019-03-15T06:45:07.230Z,7.92
2019-03-15T06:46:07.207Z,7.89
2019-03-15T06:47:07.192Z,7.92
2019-03-15T06:48:07.169Z,7.87
2019-03-15T06:49:07.143Z,7.93
2019-03-15T06:50:07.122Z,7.90
2019-03-15T06:51:09.193Z,7.90
2019-03-15T06:52:07.069Z,7.94
2019-03-15T06:53:07.046Z,7.89
2019-03-15T06:54:11.718Z,7.90
2019-03-15T06:55:06.999Z,7.90
2019-03-15T06:56:06.982Z,7.87
2019-03-15T06:57:06.960Z,7.93
2019-03-15T06:58:06.939Z,7.90
2019-03-15T06:59:06.912Z,7.82
2019-03-15T07:00:06.892Z,7.81
2019-03-15T07:01:06.866Z,7.87
2019-03-15T07:02:06.876Z,7.82
2019-03-15T07:03:06.814Z,7.84
2019-03-15T07:04:06.830Z,7.82
2019-03-15T07:05:06.772Z,7.82
2019-03-15T07:06:06.751Z,7.89
2019-03-15T07:07:06.722Z,7.90
2019-03-15T07:08:06.699Z,7.84
2019-03-15T07:09:07.343Z,7.84
2019-03-15T07:10:06.652Z,7.84
2019-03-15T07:11:06.643Z,7.81
2019-03-15T07:12:09.649Z,7.84
2019-03-15T07:13:06.587Z,7.85
2019-03-15T07:14:06.559Z,7.87
2019-03-15T07:15:06.534Z,7.90
2019-03-15T07:16:06.514Z,7.87
2019-03-15T07:17:06.489Z,7.84
2019-03-15T07:18:06.499Z,7.85
2019-03-15T07:19:06.444Z,7.82
2019-03-15T07:20:06.428Z,7.92
2019-03-15T07:21:06.402Z,7.82
2019-03-15T07:22:06.377Z,7.82
2019-03-15T07:23:06.352Z,7.82
2019-03-15T07:24:06.340Z,7.84
2019-03-15T07:25:06.311Z,7.87
2019-03-15T07:26:06.282Z,7.87
2019-03-15T07:27:12.727Z,7.94
2019-03-15T07:28:06.249Z,7.92
2019-03-15T07:29:06.217Z,7.94
2019-03-15T07:30:06.209Z,7.97
2019-03-15T07:31:06.168Z,7.89
2019-03-15T07:32:06.141Z,7.96
2019-03-15T07:33:06.124Z,7.97
2019-03-15T07:34:06.097Z,7.92
2019-03-15T07:35:06.078Z,7.90
2019-03-15T07:36:06.077Z,7.93
2019-03-15T07:37:06.033Z,7.92
2019-03-15T07:38:06.004Z,7.94
2019-03-15T07:39:05.986Z,7.96
2019-03-15T07:40:05.959Z,7.89
2019-03-15T07:41:05.936Z,7.97
2019-03-15T07:42:06.933Z,7.92
2019-03-15T07:43:05.888Z,7.94
2019-03-15T07:44:05.866Z,7.90
2019-03-15T07:45:05.849Z,7.92
2019-03-15T07:46:05.833Z,7.99
2019-03-15T07:47:05.798Z,7.96
2019-03-15T07:48:05.782Z,7.97
2019-03-15T07:49:05.756Z,7.96
2019-03-15T07:50:05.734Z,7.99
2019-03-15T07:51:05.708Z,8.08
2019-03-15T07:52:05.764Z,8.02
2019-03-15T07:53:05.688Z,8.04
2019-03-15T07:54:05.643Z,8.08
2019-03-15T07:55:05.614Z,7.97
2019-03-15T07:56:05.591Z,7.97
2019-03-15T07:57:05.573Z,8.02
2019-03-15T07:58:05.543Z,8.07
2019-03-15T07:59:05.528Z,8.14
2019-03-15T08:00:05.521Z,8.15
2019-03-15T08:01:05.475Z,8.12
2019-03-15T08:02:05.453Z,8.17
2019-03-15T08:03:05.430Z,8.17
2019-03-15T08:04:16.166Z,8.29
2019-03-15T08:05:05.382Z,8.18
2019-03-15T08:06:05.361Z,8.21
2019-03-15T08:07:05.361Z,8.25
2019-03-15T08:08:05.318Z,8.26
2019-03-15T08:09:05.298Z,8.30
2019-03-15T08:10:05.277Z,8.22
2019-03-15T08:11:05.247Z,8.12
2019-03-15T08:12:05.237Z,8.20
2019-03-15T08:13:05.199Z,8.15
2019-03-15T08:14:05.177Z,8.18
2019-03-15T08:15:05.154Z,8.15
2019-03-15T08:16:05.157Z,8.15
2019-03-15T08:17:05.111Z,8.10
2019-03-15T08:18:05.093Z,8.14
2019-03-15T08:19:05.366Z,8.22
2019-03-15T08:20:05.064Z,8.21
2019-03-15T08:21:05.026Z,8.20
2019-03-15T08:22:04.999Z,8.21
2019-03-15T08:23:08.341Z,8.29
2019-03-15T08:24:04.949Z,8.21
2019-03-15T08:25:04.927Z,8.35
2019-03-15T08:26:04.904Z,8.29
2019-03-15T08:27:04.881Z,8.28
2019-03-15T08:28:04.859Z,8.33
2019-03-15T08:29:04.844Z,8.30
2019-03-15T08:30:04.820Z,8.21
2019-03-15T08:31:04.792Z,8.28
2019-03-15T08:32:04.766Z,8.30
2019-03-15T08:33:10.255Z,8.33
2019-03-15T08:34:04.721Z,8.36
2019-03-15T08:35:04.706Z,8.36
2019-03-15T08:36:04.676Z,8.37
2019-03-15T08:37:04.659Z,8.33
2019-03-15T08:38:05.509Z,8.44
2019-03-15T08:39:04.609Z,8.42
2019-03-15T08:40:04.592Z,8.42
2019-03-15T08:41:04.577Z,8.44
2019-03-15T08:42:04.542Z,8.47
2019-03-15T08:43:04.526Z,8.42
2019-03-15T08:44:04.500Z,8.50
2019-03-15T08:45:04.477Z,8.53
2019-03-15T08:46:04.460Z,8.54
2019-03-15T08:47:04.428Z,8.47
2019-03-15T08:48:04.439Z,8.63
2019-03-15T08:49:04.389Z,8.45
2019-03-15T08:50:04.370Z,8.63
2019-03-15T08:51:04.350Z,8.62
2019-03-15T08:52:04.360Z,8.58
2019-03-15T08:53:04.298Z,8.66
2019-03-15T08:54:04.274Z,8.54
2019-03-15T08:55:05.789Z,8.62
2019-03-15T08:56:04.223Z,8.63
2019-03-15T08:57:04.207Z,8.57
2019-03-15T08:58:13.772Z,8.58
2019-03-15T08:59:04.156Z,8.58
2019-03-15T09:00:04.134Z,8.63
2019-03-15T09:01:04.117Z,8.57
2019-03-15T09:02:04.092Z,8.72
2019-03-15T09:03:04.067Z,8.73
2019-03-15T09:04:04.046Z,8.83
2019-03-15T09:05:04.028Z,8.90
2019-03-15T09:06:04.009Z,8.83
2019-03-15T09:07:03.986Z,8.87
2019-03-15T09:08:03.957Z,8.91
2019-03-15T09:09:03.935Z,8.86
2019-03-15T09:10:03.950Z,8.99
2019-03-15T09:11:03.892Z,8.94
2019-03-15T09:12:03.872Z,8.97
2019-03-15T09:13:03.847Z,8.96
2019-03-15T09:14:03.825Z,8.99
2019-03-15T09:15:03.805Z,8.97
2019-03-15T09:16:03.777Z,9.04
2019-03-15T09:17:03.755Z,9.09
2019-03-15T09:18:03.738Z,9.15
2019-03-15T09:19:03.712Z,9.13
2019-03-15T09:20:03.697Z,9.13
2019-03-15T09:21:03.674Z,9.30
2019-03-15T09:22:03.646Z,9.27
2019-03-15T09:23:03.633Z,9.28
2019-03-15T09:24:03.608Z,9.28
2019-03-15T09:25:03.586Z,9.38
2019-03-15T09:26:03.556Z,9.39
2019-03-15T09:27:03.534Z,9.42
2019-03-15T09:28:03.518Z,9.43
2019-03-15T09:29:03.491Z,9.46
2019-03-15T09:30:03.472Z,9.58
2019-03-15T09:31:03.459Z,9.56
2019-03-15T09:32:06.408Z,9.61
2019-03-15T09:33:03.505Z,9.57
2019-03-15T09:34:03.445Z,9.63
2019-03-15T09:35:03.367Z,9.68
2019-03-15T09:36:03.370Z,9.70
2019-03-15T09:37:03.325Z,9.70
2019-03-15T09:38:03.306Z,9.75
2019-03-15T09:39:03.281Z,9.76
2019-03-15T09:40:03.265Z,9.68
2019-03-15T09:41:03.237Z,9.81
2019-03-15T09:42:03.214Z,9.78
2019-03-15T09:43:03.199Z,9.83
2019-03-15T09:44:03.173Z,9.82
2019-03-15T09:45:03.155Z,10.01
2019-03-15T09:46:03.132Z,9.88
2019-03-15T09:47:03.112Z,9.85
2019-03-15T09:48:03.102Z,10.03
2019-03-15T09:49:03.069Z,10.04
2019-03-15T09:50:03.055Z,10.15
2019-03-15T09:51:03.024Z,10.21
2019-03-15T09:52:03.005Z,10.28
2019-03-15T09:53:05.822Z,10.39
2019-03-15T09:54:02.970Z,10.39
2019-03-15T09:55:02.941Z,10.42
2019-03-15T09:56:02.919Z,10.32
2019-03-15T09:57:02.904Z,10.25
2019-03-15T09:58:02.879Z,10.46
2019-03-15T09:59:02.860Z,10.40
2019-03-15T10:00:02.838Z,10.42
2019-03-15T10:01:03.022Z,10.51
2019-03-15T10:02:02.822Z,10.55
2019-03-15T10:03:02.787Z,10.42
2019-03-15T10:04:02.760Z,10.43
2019-03-15T10:05:10.838Z,10.46
2019-03-15T10:06:14.232Z,10.55
2019-03-15T10:07:02.697Z,10.46
2019-03-15T10:08:02.681Z,10.52
2019-03-15T10:09:02.652Z,10.58
2019-03-15T10:10:13.016Z,10.70
2019-03-15T10:11:02.615Z,10.73
2019-03-15T10:12:02.597Z,10.84
2019-03-15T10:13:06.077Z,10.68
2019-03-15T10:14:02.557Z,10.83
2019-03-15T10:15:02.540Z,11.06
2019-03-15T10:16:02.514Z,11.13
2019-03-15T10:17:02.498Z,11.10
2019-03-15T10:18:02.474Z,11.24
2019-03-15T10:19:02.459Z,11.14
2019-03-15T10:20:02.431Z,11.11
2019-03-15T10:21:02.408Z,11.19
2019-03-15T10:22:02.389Z,11.14
2019-03-15T10:23:05.907Z,11.27
2019-03-15T10:24:02.351Z,11.27
2019-03-15T10:25:02.334Z,11.24
2019-03-15T10:26:02.316Z,11.34
2019-03-15T10:27:02.297Z,11.28
2019-03-15T10:28:02.277Z,11.19
2019-03-15T10:29:14.606Z,11.17
2019-03-15T10:30:02.230Z,11.25
2019-03-15T10:31:02.214Z,11.20
2019-03-15T10:32:02.200Z,11.28
2019-03-15T10:33:02.174Z,11.34
2019-03-15T10:34:02.152Z,11.27
2019-03-15T10:35:02.144Z,11.35
2019-03-15T10:36:02.122Z,11.28
2019-03-15T10:37:02.090Z,11.32
2019-03-15T10:38:02.086Z,11.38
2019-03-15T10:39:02.071Z,11.44
2019-03-15T10:40:02.053Z,11.59
2019-03-15T10:41:02.010Z,11.57
2019-03-15T10:42:02.000Z,11.64
2019-03-15T10:43:01.979Z,11.50
2019-03-15T10:44:04.197Z,11.44
2019-03-15T10:45:01.940Z,11.43
2019-03-15T10:46:01.914Z,11.52
2019-03-15T10:47:01.895Z,11.65
2019-03-15T10:48:01.876Z,11.62
2019-03-15T10:49:01.860Z,11.67
2019-03-15T10:50:01.841Z,11.67
2019-03-15T10:51:01.822Z,11.54
2019-03-15T10:52:01.795Z,11.52
2019-03-15T10:53:01.783Z,11.61
2019-03-15T10:54:01.763Z,11.59
2019-03-15T10:55:01.738Z,11.54
2019-03-15T10:56:01.736Z,11.54
2019-03-15T10:57:01.712Z,11.56
2019-03-15T10:58:01.677Z,11.49
2019-03-15T10:59:01.666Z,11.53
2019-03-15T11:00:01.646Z,11.41
2019-03-15T11:01:01.623Z,11.47
2019-03-15T11:02:01.610Z,11.43
2019-03-15T11:03:01.581Z,11.39
2019-03-15T11:04:01.566Z,11.44
2019-03-15T11:05:01.543Z,11.28
2019-03-15T11:06:01.524Z,11.38
2019-03-15T11:07:01.513Z,11.39
2019-03-15T11:08:01.483Z,11.35
2019-03-15T11:09:01.463Z,11.36
2019-03-15T11:10:01.442Z,11.39
2019-03-15T11:11:01.423Z,11.52
2019-03-15T11:12:01.406Z,11.46
2019-03-15T11:13:01.382Z,11.49
2019-03-15T11:14:01.365Z,11.49
2019-03-15T11:15:01.346Z,11.53
2019-03-15T11:16:01.371Z,11.46
2019-03-15T11:17:01.310Z,11.46
2019-03-15T11:18:01.282Z,11.47
2019-03-15T11:19:01.283Z,11.49
2019-03-15T11:20:01.248Z,11.54
2019-03-15T11:21:01.224Z,11.54
2019-03-15T11:22:01.206Z,11.68
2019-03-15T11:23:01.180Z,11.62
2019-03-15T11:24:01.167Z,11.74
2019-03-15T11:25:01.147Z,11.67
2019-03-15T11:26:13.066Z,11.68
2019-03-15T11:27:01.103Z,11.82
2019-03-15T11:28:01.088Z,11.75
2019-03-15T11:29:01.060Z,11.86
2019-03-15T11:30:01.041Z,11.85
2019-03-15T11:31:01.032Z,11.86
2019-03-15T11:32:01.001Z,11.86
2019-03-15T11:33:01.020Z,11.85
2019-03-15T11:34:00.965Z,11.96
2019-03-15T11:35:00.939Z,11.90
2019-03-15T11:36:00.943Z,11.93
2019-03-15T11:37:03.296Z,11.87
2019-03-15T11:38:00.883Z,11.93
2019-03-15T11:39:00.860Z,11.96
2019-03-15T11:40:00.844Z,11.85
2019-03-15T11:41:00.821Z,11.89
2019-03-15T11:42:00.810Z,11.93
2019-03-15T11:43:00.781Z,11.82
2019-03-15T11:44:00.780Z,11.87
2019-03-15T11:45:00.744Z,11.85
2019-03-15T11:46:00.732Z,11.87
2019-03-15T11:47:00.713Z,11.94
2019-03-15T11:48:03.983Z,11.94
2019-03-15T11:49:00.661Z,11.96
2019-03-15T11:50:00.651Z,12.06
2019-03-15T11:51:00.625Z,11.96
2019-03-15T11:52:00.610Z,11.89
2019-03-15T11:53:00.584Z,12.02
2019-03-15T11:54:00.565Z,11.97
2019-03-15T11:55:00.548Z,11.94
2019-03-15T11:56:00.529Z,11.90
2019-03-15T11:57:00.504Z,11.99
2019-03-15T11:58:00.483Z,11.96
2019-03-15T11:59:00.467Z,12.02
2019-03-15T12:00:00.442Z,12.02
2019-03-15T12:01:00.425Z,12.04
2019-03-15T12:02:04.263Z,12.09
2019-03-15T12:03:00.388Z,12.19
2019-03-15T12:04:00.368Z,12.12
2019-03-15T12:05:00.392Z,12.19
2019-03-15T12:06:00.323Z,12.20
2019-03-15T12:07:00.298Z,12.15
2019-03-15T12:08:00.279Z,12.20
2019-03-15T12:09:00.260Z,12.29
2019-03-15T12:10:00.444Z,12.34
2019-03-15T12:11:00.227Z,12.42
2019-03-15T12:12:00.206Z,12.26
2019-03-15T12:13:00.179Z,12.37
2019-03-15T12:14:00.157Z,12.26
2019-03-15T12:15:00.287Z,12.29
2019-03-15T12:16:00.119Z,12.30
2019-03-15T12:17:00.099Z,12.26
2019-03-15T12:18:00.090Z,12.21
2019-03-15T12:19:00.066Z,12.21
2019-03-15T12:20:00.045Z,12.16
2019-03-15T12:21:00.023Z,12.15
2019-03-15T12:22:06.240Z,12.08
2019-03-15T12:22:59.996Z,12.04
2019-03-15T12:23:59.965Z,12.01
2019-03-15T12:24:59.939Z,12.05
2019-03-15T12:25:59.930Z,12.11
2019-03-15T12:26:59.900Z,12.09
2019-03-15T12:27:59.877Z,12.11
2019-03-15T12:28:59.860Z,12.11
2019-03-15T12:29:59.837Z,12.12
2019-03-15T12:30:59.816Z,12.15
2019-03-15T12:31:59.797Z,12.20
2019-03-15T12:32:59.781Z,12.15
2019-03-15T12:33:59.753Z,12.23
2019-03-15T12:34:59.736Z,12.20
2019-03-15T12:36:03.121Z,12.20
2019-03-15T12:36:59.694Z,12.15
2019-03-15T12:37:59.681Z,12.20
2019-03-15T12:38:59.661Z,12.21
2019-03-15T12:39:59.632Z,12.13
2019-03-15T12:40:59.610Z,12.11
2019-03-15T12:41:59.598Z,12.13
2019-03-15T12:42:59.578Z,12.05
2019-03-15T12:43:59.549Z,12.06
2019-03-15T12:44:59.536Z,12.12
2019-03-15T12:45:59.508Z,12.11
2019-03-15T12:46:59.495Z,12.16
2019-03-15T12:47:59.476Z,12.11
2019-03-15T12:48:59.447Z,12.19
2019-03-15T12:49:59.430Z,12.24
2019-03-15T12:50:59.412Z,12.27
2019-03-15T12:51:59.393Z,12.44
2019-03-15T12:52:59.364Z,12.41
2019-03-15T12:53:59.349Z,12.48
2019-03-15T12:54:59.326Z,12.49
2019-03-15T12:55:59.304Z,12.52
2019-03-15T12:56:59.293Z,12.52
2019-03-15T12:57:59.262Z,12.62
2019-03-15T12:58:59.258Z,12.64
2019-03-15T12:59:59.239Z,12.60
2019-03-15T13:00:59.203Z,12.62
2019-03-15T13:01:59.182Z,12.57
2019-03-15T13:02:59.177Z,12.69
2019-03-15T13:03:59.143Z,12.62
2019-03-15T13:04:59.135Z,12.64
2019-03-15T13:05:59.105Z,12.63
2019-03-15T13:06:59.083Z,12.71
2019-03-15T13:07:59.062Z,12.71
2019-03-15T13:08:59.049Z,12.77
2019-03-15T13:09:59.026Z,12.82
2019-03-15T13:10:59.007Z,12.79